Terminal Aerodrome Forecast
Issued by NWS

Home | Current Version | Previous Version | Text Only | Print | Product List | Glossary Off
Versions: 1 2 3 4 5 6 7 8 9 10 11 12 13 14 15 16 17 18 19 20 21 22 23 24 25 26 27 28
000 FTUS41 KBOX 251743 TAFACK TAF KACK 251743Z 2518/2618 25015KT P6SM SCT030 BKN080 FM252100 27018G26KT P6SM SCT200 FM260200 28016KT P6SM FEW200 FM261200 28013KT P6SM SKC=

USA.gov is the U.S. government's official web portal to all federal, state and local government web resources and services.